sensor_id;sensor_type;location;lat;lon;timestamp;P1;durP1;ratioP1;P2;durP2;ratioP2
78169;SDS011;67412;49.892;14.490;2023-04-25T00:00:17;4.18;;;1.67;;
78169;SDS011;67412;49.892;14.490;2023-04-25T00:02:42;6.18;;;2.00;;
78169;SDS011;67412;49.892;14.490;2023-04-25T00:05:08;4.78;;;1.60;;
78169;SDS011;67412;49.892;14.490;2023-04-25T00:07:34;6.47;;;1.70;;
78169;SDS011;67412;49.892;14.490;2023-04-25T00:09:59;4.40;;;1.60;;
78169;SDS011;67412;49.892;14.490;2023-04-25T00:12:25;5.35;;;1.77;;
78169;SDS011;67412;49.892;14.490;2023-04-25T00:14:53;4.25;;;1.60;;
78169;SDS011;67412;49.892;14.490;2023-04-25T00:17:18;5.22;;;1.63;;
78169;SDS011;67412;49.892;14.490;2023-04-25T00:19:44;5.28;;;1.80;;
78169;SDS011;67412;49.892;14.490;2023-04-25T00:24:36;6.15;;;1.98;;
78169;SDS011;67412;49.892;14.490;2023-04-25T00:27:02;5.63;;;1.92;;
78169;SDS011;67412;49.892;14.490;2023-04-25T00:29:27;5.45;;;1.90;;
78169;SDS011;67412;49.892;14.490;2023-04-25T00:31:52;5.03;;;1.58;;
78169;SDS011;67412;49.892;14.490;2023-04-25T00:34:18;5.72;;;1.80;;
78169;SDS011;67412;49.892;14.490;2023-04-25T00:36:43;5.82;;;2.13;;
78169;SDS011;67412;49.892;14.490;2023-04-25T00:39:08;5.53;;;1.90;;
78169;SDS011;67412;49.892;14.490;2023-04-25T00:41:34;4.60;;;1.85;;
78169;SDS011;67412;49.892;14.490;2023-04-25T00:43:59;7.18;;;2.05;;
78169;SDS011;67412;49.892;14.490;2023-04-25T00:46:26;5.63;;;1.85;;
78169;SDS011;67412;49.892;14.490;2023-04-25T00:48:51;6.55;;;2.00;;
78169;SDS011;67412;49.892;14.490;2023-04-25T00:51:19;5.97;;;2.05;;
78169;SDS011;67412;49.892;14.490;2023-04-25T00:53:45;6.13;;;2.20;;
78169;SDS011;67412;49.892;14.490;2023-04-25T00:56:12;4.65;;;1.63;;
78169;SDS011;67412;49.892;14.490;2023-04-25T00:58:38;6.00;;;2.20;;
78169;SDS011;67412;49.892;14.490;2023-04-25T01:01:06;4.38;;;1.65;;
78169;SDS011;67412;49.892;14.490;2023-04-25T01:03:32;6.35;;;1.67;;
78169;SDS011;67412;49.892;14.490;2023-04-25T01:06:00;8.32;;;2.50;;
78169;SDS011;67412;49.892;14.490;2023-04-25T01:08:27;5.53;;;2.22;;
78169;SDS011;67412;49.892;14.490;2023-04-25T01:10:52;7.47;;;2.58;;
78169;SDS011;67412;49.892;14.490;2023-04-25T01:13:17;7.55;;;2.15;;
78169;SDS011;67412;49.892;14.490;2023-04-25T01:15:43;6.85;;;2.22;;
78169;SDS011;67412;49.892;14.490;2023-04-25T01:18:08;6.68;;;2.33;;
78169;SDS011;67412;49.892;14.490;2023-04-25T01:20:34;6.88;;;2.08;;
78169;SDS011;67412;49.892;14.490;2023-04-25T01:23:02;6.60;;;2.33;;
78169;SDS011;67412;49.892;14.490;2023-04-25T01:25:28;7.50;;;2.42;;
78169;SDS011;67412;49.892;14.490;2023-04-25T01:27:54;7.18;;;2.42;;
78169;SDS011;67412;49.892;14.490;2023-04-25T01:30:20;7.13;;;2.22;;
78169;SDS011;67412;49.892;14.490;2023-04-25T01:32:45;6.65;;;2.00;;
78169;SDS011;67412;49.892;14.490;2023-04-25T01:35:13;6.97;;;2.42;;
78169;SDS011;67412;49.892;14.490;2023-04-25T01:37:39;7.13;;;2.20;;
78169;SDS011;67412;49.892;14.490;2023-04-25T01:40:05;7.75;;;2.10;;
78169;SDS011;67412;49.892;14.490;2023-04-25T01:42:32;6.47;;;2.28;;
78169;SDS011;67412;49.892;14.490;2023-04-25T01:44:58;7.32;;;2.08;;
78169;SDS011;67412;49.892;14.490;2023-04-25T01:47:24;5.57;;;2.00;;
78169;SDS011;67412;49.892;14.490;2023-04-25T01:49:49;6.47;;;2.13;;
78169;SDS011;67412;49.892;14.490;2023-04-25T01:52:14;6.45;;;2.10;;
78169;SDS011;67412;49.892;14.490;2023-04-25T01:54:40;5.97;;;2.05;;
78169;SDS011;67412;49.892;14.490;2023-04-25T01:57:09;5.93;;;1.90;;
78169;SDS011;67412;49.892;14.490;2023-04-25T01:59:35;5.32;;;2.00;;
78169;SDS011;67412;49.892;14.490;2023-04-25T02:02:00;6.72;;;2.47;;
78169;SDS011;67412;49.892;14.490;2023-04-25T02:04:28;9.07;;;2.45;;
78169;SDS011;67412;49.892;14.490;2023-04-25T02:06:57;7.43;;;2.38;;
78169;SDS011;67412;49.892;14.490;2023-04-25T02:09:22;5.20;;;2.20;;
78169;SDS011;67412;49.892;14.490;2023-04-25T02:11:48;8.55;;;2.08;;
78169;SDS011;67412;49.892;14.490;2023-04-25T02:14:14;7.22;;;2.42;;
78169;SDS011;67412;49.892;14.490;2023-04-25T02:16:39;6.60;;;2.22;;
78169;SDS011;67412;49.892;14.490;2023-04-25T02:19:05;6.15;;;2.15;;
78169;SDS011;67412;49.892;14.490;2023-04-25T02:21:31;5.95;;;2.40;;
78169;SDS011;67412;49.892;14.490;2023-04-25T02:23:56;6.22;;;2.33;;
78169;SDS011;67412;49.892;14.490;2023-04-25T02:26:22;6.47;;;2.00;;
78169;SDS011;67412;49.892;14.490;2023-04-25T02:28:48;6.20;;;2.28;;
78169;SDS011;67412;49.892;14.490;2023-04-25T02:31:14;5.93;;;2.30;;
78169;SDS011;67412;49.892;14.490;2023-04-25T02:33:39;6.13;;;2.28;;
78169;SDS011;67412;49.892;14.490;2023-04-25T02:36:05;9.73;;;2.60;;
78169;SDS011;67412;49.892;14.490;2023-04-25T02:38:30;5.53;;;1.75;;
78169;SDS011;67412;49.892;14.490;2023-04-25T02:40:56;7.85;;;2.40;;
78169;SDS011;67412;49.892;14.490;2023-04-25T02:43:21;5.80;;;2.25;;
78169;SDS011;67412;49.892;14.490;2023-04-25T02:45:47;5.63;;;2.13;;
78169;SDS011;67412;49.892;14.490;2023-04-25T02:48:12;8.18;;;2.80;;
78169;SDS011;67412;49.892;14.490;2023-04-25T02:50:37;6.65;;;2.35;;
78169;SDS011;67412;49.892;14.490;2023-04-25T02:53:03;5.90;;;2.10;;
78169;SDS011;67412;49.892;14.490;2023-04-25T02:55:28;7.45;;;2.20;;
78169;SDS011;67412;49.892;14.490;2023-04-25T02:57:53;7.00;;;2.20;;
78169;SDS011;67412;49.892;14.490;2023-04-25T03:00:20;6.75;;;2.40;;
78169;SDS011;67412;49.892;14.490;2023-04-25T03:02:46;5.57;;;2.05;;
78169;SDS011;67412;49.892;14.490;2023-04-25T03:05:12;7.57;;;2.20;;
78169;SDS011;67412;49.892;14.490;2023-04-25T03:07:37;5.95;;;2.17;;
78169;SDS011;67412;49.892;14.490;2023-04-25T03:10:04;6.72;;;2.33;;
78169;SDS011;67412;49.892;14.490;2023-04-25T03:14:56;5.87;;;1.97;;
78169;SDS011;67412;49.892;14.490;2023-04-25T03:17:21;8.43;;;2.72;;
78169;SDS011;67412;49.892;14.490;2023-04-25T03:19:47;5.30;;;2.08;;
78169;SDS011;67412;49.892;14.490;2023-04-25T03:22:13;7.18;;;2.42;;
78169;SDS011;67412;49.892;14.490;2023-04-25T03:24:38;7.50;;;2.50;;
78169;SDS011;67412;49.892;14.490;2023-04-25T03:27:03;6.22;;;2.50;;
78169;SDS011;67412;49.892;14.490;2023-04-25T03:29:29;7.88;;;2.78;;
78169;SDS011;67412;49.892;14.490;2023-04-25T03:31:54;5.63;;;2.35;;
78169;SDS011;67412;49.892;14.490;2023-04-25T03:34:19;6.80;;;2.30;;
78169;SDS011;67412;49.892;14.490;2023-04-25T03:36:46;6.50;;;2.70;;
78169;SDS011;67412;49.892;14.490;2023-04-25T03:39:11;8.63;;;2.70;;
78169;SDS011;67412;49.892;14.490;2023-04-25T03:41:37;6.88;;;2.90;;
78169;SDS011;67412;49.892;14.490;2023-04-25T03:44:02;7.43;;;2.95;;
78169;SDS011;67412;49.892;14.490;2023-04-25T03:46:28;9.43;;;3.03;;
78169;SDS011;67412;49.892;14.490;2023-04-25T03:48:54;9.48;;;2.83;;
78169;SDS011;67412;49.892;14.490;2023-04-25T03:51:19;8.82;;;2.67;;
78169;SDS011;67412;49.892;14.490;2023-04-25T03:53:45;7.45;;;2.75;;
78169;SDS011;67412;49.892;14.490;2023-04-25T03:56:10;8.68;;;2.60;;
78169;SDS011;67412;49.892;14.490;2023-04-25T03:58:35;7.47;;;2.63;;
78169;SDS011;67412;49.892;14.490;2023-04-25T04:01:01;8.18;;;2.53;;
78169;SDS011;67412;49.892;14.490;2023-04-25T04:03:32;9.15;;;3.10;;
78169;SDS011;67412;49.892;14.490;2023-04-25T04:05:57;7.85;;;3.00;;
78169;SDS011;67412;49.892;14.490;2023-04-25T04:08:22;7.90;;;2.80;;
78169;SDS011;67412;49.892;14.490;2023-04-25T04:10:48;8.55;;;2.78;;
78169;SDS011;67412;49.892;14.490;2023-04-25T04:13:13;7.15;;;2.65;;
78169;SDS011;67412;49.892;14.490;2023-04-25T04:15:38;6.80;;;2.10;;
78169;SDS011;67412;49.892;14.490;2023-04-25T04:18:04;7.25;;;2.03;;
78169;SDS011;67412;49.892;14.490;2023-04-25T04:20:29;7.90;;;2.80;;
78169;SDS011;67412;49.892;14.490;2023-04-25T04:22:58;8.15;;;2.80;;
78169;SDS011;67412;49.892;14.490;2023-04-25T04:25:23;8.25;;;2.90;;
78169;SDS011;67412;49.892;14.490;2023-04-25T04:27:49;7.80;;;3.17;;
78169;SDS011;67412;49.892;14.490;2023-04-25T04:30:19;6.93;;;2.90;;
78169;SDS011;67412;49.892;14.490;2023-04-25T04:32:46;7.82;;;3.00;;
78169;SDS011;67412;49.892;14.490;2023-04-25T04:37:39;9.02;;;3.08;;
78169;SDS011;67412;49.892;14.490;2023-04-25T04:40:04;11.73;;;3.53;;
78169;SDS011;67412;49.892;14.490;2023-04-25T04:42:31;10.82;;;3.85;;
78169;SDS011;67412;49.892;14.490;2023-04-25T04:44:56;13.18;;;4.78;;
78169;SDS011;67412;49.892;14.490;2023-04-25T04:47:23;12.88;;;4.70;;
78169;SDS011;67412;49.892;14.490;2023-04-25T04:49:49;17.27;;;6.47;;
78169;SDS011;67412;49.892;14.490;2023-04-25T04:52:14;14.02;;;5.50;;
78169;SDS011;67412;49.892;14.490;2023-04-25T04:54:40;10.82;;;4.38;;
78169;SDS011;67412;49.892;14.490;2023-04-25T04:57:05;13.10;;;5.63;;
78169;SDS011;67412;49.892;14.490;2023-04-25T04:59:30;10.73;;;4.25;;
78169;SDS011;67412;49.892;14.490;2023-04-25T05:01:56;10.70;;;3.45;;
78169;SDS011;67412;49.892;14.490;2023-04-25T05:04:21;9.02;;;3.35;;
78169;SDS011;67412;49.892;14.490;2023-04-25T05:06:47;9.77;;;3.58;;
78169;SDS011;67412;49.892;14.490;2023-04-25T05:09:12;10.77;;;3.63;;
78169;SDS011;67412;49.892;14.490;2023-04-25T05:11:37;7.70;;;2.70;;
78169;SDS011;67412;49.892;14.490;2023-04-25T05:14:03;10.15;;;2.97;;
78169;SDS011;67412;49.892;14.490;2023-04-25T05:16:28;6.75;;;2.67;;
78169;SDS011;67412;49.892;14.490;2023-04-25T05:18:53;8.10;;;2.70;;
78169;SDS011;67412;49.892;14.490;2023-04-25T05:21:19;10.57;;;3.13;;
78169;SDS011;67412;49.892;14.490;2023-04-25T05:23:44;7.32;;;2.92;;
78169;SDS011;67412;49.892;14.490;2023-04-25T05:26:09;8.05;;;2.92;;
78169;SDS011;67412;49.892;14.490;2023-04-25T05:28:38;8.40;;;2.78;;
78169;SDS011;67412;49.892;14.490;2023-04-25T05:31:07;8.20;;;2.88;;
78169;SDS011;67412;49.892;14.490;2023-04-25T05:33:32;8.73;;;2.85;;
78169;SDS011;67412;49.892;14.490;2023-04-25T05:35:57;7.28;;;2.58;;
78169;SDS011;67412;49.892;14.490;2023-04-25T05:38:23;7.90;;;2.83;;
78169;SDS011;67412;49.892;14.490;2023-04-25T05:40:48;7.10;;;2.70;;
78169;SDS011;67412;49.892;14.490;2023-04-25T05:43:13;8.57;;;3.00;;
78169;SDS011;67412;49.892;14.490;2023-04-25T05:45:39;7.55;;;3.05;;
78169;SDS011;67412;49.892;14.490;2023-04-25T05:48:04;7.85;;;2.80;;
78169;SDS011;67412;49.892;14.490;2023-04-25T05:50:30;7.82;;;3.03;;
78169;SDS011;67412;49.892;14.490;2023-04-25T05:52:55;7.63;;;3.00;;
78169;SDS011;67412;49.892;14.490;2023-04-25T05:55:21;9.40;;;3.03;;
78169;SDS011;67412;49.892;14.490;2023-04-25T05:57:46;7.90;;;3.03;;
78169;SDS011;67412;49.892;14.490;2023-04-25T06:00:12;7.45;;;2.95;;
78169;SDS011;67412;49.892;14.490;2023-04-25T06:02:39;6.75;;;2.65;;
78169;SDS011;67412;49.892;14.490;2023-04-25T06:05:05;6.45;;;3.03;;
78169;SDS011;67412;49.892;14.490;2023-04-25T06:07:31;8.07;;;2.90;;
78169;SDS011;67412;49.892;14.490;2023-04-25T06:09:56;8.23;;;2.90;;
78169;SDS011;67412;49.892;14.490;2023-04-25T06:12:22;6.80;;;2.38;;
78169;SDS011;67412;49.892;14.490;2023-04-25T06:14:47;7.22;;;3.13;;
78169;SDS011;67412;49.892;14.490;2023-04-25T06:17:13;8.57;;;3.20;;
78169;SDS011;67412;49.892;14.490;2023-04-25T06:19:38;8.05;;;3.03;;
78169;SDS011;67412;49.892;14.490;2023-04-25T06:22:04;6.70;;;2.83;;
78169;SDS011;67412;49.892;14.490;2023-04-25T06:24:29;9.15;;;2.80;;
78169;SDS011;67412;49.892;14.490;2023-04-25T06:26:54;8.35;;;3.22;;
78169;SDS011;67412;49.892;14.490;2023-04-25T06:29:20;9.25;;;3.20;;
78169;SDS011;67412;49.892;14.490;2023-04-25T06:31:46;8.93;;;3.10;;
78169;SDS011;67412;49.892;14.490;2023-04-25T06:34:11;6.95;;;2.85;;
78169;SDS011;67412;49.892;14.490;2023-04-25T06:36:36;7.90;;;2.55;;
78169;SDS011;67412;49.892;14.490;2023-04-25T06:39:02;7.38;;;2.83;;
78169;SDS011;67412;49.892;14.490;2023-04-25T06:41:27;8.68;;;3.00;;
78169;SDS011;67412;49.892;14.490;2023-04-25T06:43:53;8.02;;;3.33;;
78169;SDS011;67412;49.892;14.490;2023-04-25T06:46:18;7.15;;;2.50;;
78169;SDS011;67412;49.892;14.490;2023-04-25T06:48:43;7.70;;;3.00;;
78169;SDS011;67412;49.892;14.490;2023-04-25T06:51:09;7.95;;;3.10;;
78169;SDS011;67412;49.892;14.490;2023-04-25T06:53:35;7.05;;;3.10;;
78169;SDS011;67412;49.892;14.490;2023-04-25T06:56:00;6.45;;;2.65;;
78169;SDS011;67412;49.892;14.490;2023-04-25T06:58:25;8.65;;;3.65;;
78169;SDS011;67412;49.892;14.490;2023-04-25T07:00:51;8.43;;;3.05;;
78169;SDS011;67412;49.892;14.490;2023-04-25T07:03:16;8.70;;;3.08;;
78169;SDS011;67412;49.892;14.490;2023-04-25T07:05:42;7.53;;;2.95;;
78169;SDS011;67412;49.892;14.490;2023-04-25T07:08:07;7.50;;;3.22;;
78169;SDS011;67412;49.892;14.490;2023-04-25T07:10:32;9.10;;;3.17;;
78169;SDS011;67412;49.892;14.490;2023-04-25T07:12:58;9.23;;;3.47;;
78169;SDS011;67412;49.892;14.490;2023-04-25T07:15:23;7.75;;;2.90;;
78169;SDS011;67412;49.892;14.490;2023-04-25T07:17:48;8.15;;;3.10;;
78169;SDS011;67412;49.892;14.490;2023-04-25T07:20:14;8.48;;;3.25;;
78169;SDS011;67412;49.892;14.490;2023-04-25T07:22:39;7.60;;;3.15;;
78169;SDS011;67412;49.892;14.490;2023-04-25T07:25:04;9.27;;;3.45;;
78169;SDS011;67412;49.892;14.490;2023-04-25T07:27:31;8.48;;;3.33;;
78169;SDS011;67412;49.892;14.490;2023-04-25T07:29:56;9.43;;;3.40;;
78169;SDS011;67412;49.892;14.490;2023-04-25T07:32:22;8.02;;;2.92;;
78169;SDS011;67412;49.892;14.490;2023-04-25T07:34:47;7.90;;;3.17;;
78169;SDS011;67412;49.892;14.490;2023-04-25T07:37:13;8.23;;;3.17;;
78169;SDS011;67412;49.892;14.490;2023-04-25T07:39:39;8.45;;;3.50;;
78169;SDS011;67412;49.892;14.490;2023-04-25T07:42:04;8.38;;;3.20;;
78169;SDS011;67412;49.892;14.490;2023-04-25T07:44:32;9.15;;;2.95;;
78169;SDS011;67412;49.892;14.490;2023-04-25T07:47:03;8.52;;;3.15;;
78169;SDS011;67412;49.892;14.490;2023-04-25T07:49:29;8.25;;;3.75;;
78169;SDS011;67412;49.892;14.490;2023-04-25T07:51:54;7.25;;;2.92;;
78169;SDS011;67412;49.892;14.490;2023-04-25T07:54:20;7.85;;;3.03;;
78169;SDS011;67412;49.892;14.490;2023-04-25T07:56:45;8.52;;;3.03;;
78169;SDS011;67412;49.892;14.490;2023-04-25T07:59:10;7.38;;;2.83;;
78169;SDS011;67412;49.892;14.490;2023-04-25T08:01:36;8.10;;;3.30;;
78169;SDS011;67412;49.892;14.490;2023-04-25T08:04:02;6.93;;;2.92;;
78169;SDS011;67412;49.892;14.490;2023-04-25T08:06:27;7.65;;;2.80;;
78169;SDS011;67412;49.892;14.490;2023-04-25T08:08:53;6.70;;;2.65;;
78169;SDS011;67412;49.892;14.490;2023-04-25T08:11:18;7.63;;;3.40;;
78169;SDS011;67412;49.892;14.490;2023-04-25T08:13:43;8.90;;;3.38;;
78169;SDS011;67412;49.892;14.490;2023-04-25T08:16:08;7.78;;;2.75;;
78169;SDS011;67412;49.892;14.490;2023-04-25T08:18:34;8.50;;;3.45;;
78169;SDS011;67412;49.892;14.490;2023-04-25T08:20:59;8.20;;;3.13;;
78169;SDS011;67412;49.892;14.490;2023-04-25T08:23:25;8.15;;;2.90;;
78169;SDS011;67412;49.892;14.490;2023-04-25T08:25:50;6.10;;;2.70;;
78169;SDS011;67412;49.892;14.490;2023-04-25T08:28:15;7.25;;;2.45;;
78169;SDS011;67412;49.892;14.490;2023-04-25T08:30:41;7.57;;;3.03;;
78169;SDS011;67412;49.892;14.490;2023-04-25T08:33:06;7.10;;;2.80;;
78169;SDS011;67412;49.892;14.490;2023-04-25T08:35:32;7.07;;;2.78;;
78169;SDS011;67412;49.892;14.490;2023-04-25T08:37:58;6.13;;;2.38;;
78169;SDS011;67412;49.892;14.490;2023-04-25T08:40:23;6.90;;;2.38;;
78169;SDS011;67412;49.892;14.490;2023-04-25T08:42:55;6.70;;;2.70;;
78169;SDS011;67412;49.892;14.490;2023-04-25T08:45:22;9.77;;;3.10;;
78169;SDS011;67412;49.892;14.490;2023-04-25T08:47:47;8.43;;;3.08;;
78169;SDS011;67412;49.892;14.490;2023-04-25T08:50:17;7.55;;;2.80;;
78169;SDS011;67412;49.892;14.490;2023-04-25T08:52:46;8.35;;;2.78;;
78169;SDS011;67412;49.892;14.490;2023-04-25T08:55:13;7.85;;;2.53;;
78169;SDS011;67412;49.892;14.490;2023-04-25T08:57:40;8.15;;;2.55;;
78169;SDS011;67412;49.892;14.490;2023-04-25T09:00:08;8.00;;;3.00;;
78169;SDS011;67412;49.892;14.490;2023-04-25T09:05:01;3.92;;;1.67;;
78169;SDS011;67412;49.892;14.490;2023-04-25T09:07:29;5.15;;;2.22;;
78169;SDS011;67412;49.892;14.490;2023-04-25T09:09:54;5.85;;;2.63;;
78169;SDS011;67412;49.892;14.490;2023-04-25T09:12:20;6.90;;;2.67;;
78169;SDS011;67412;49.892;14.490;2023-04-25T09:17:52;6.40;;;2.45;;
78169;SDS011;67412;49.892;14.490;2023-04-25T09:20:21;6.70;;;2.83;;
78169;SDS011;67412;49.892;14.490;2023-04-25T09:22:46;7.65;;;2.83;;
78169;SDS011;67412;49.892;14.490;2023-04-25T09:25:12;4.93;;;1.80;;
78169;SDS011;67412;49.892;14.490;2023-04-25T09:27:50;5.40;;;1.65;;
78169;SDS011;67412;49.892;14.490;2023-04-25T09:30:17;5.65;;;2.17;;
78169;SDS011;67412;49.892;14.490;2023-04-25T09:32:43;6.35;;;2.20;;
78169;SDS011;67412;49.892;14.490;2023-04-25T09:35:08;6.22;;;2.30;;
78169;SDS011;67412;49.892;14.490;2023-04-25T09:37:34;9.13;;;2.45;;
78169;SDS011;67412;49.892;14.490;2023-04-25T09:40:00;5.75;;;2.28;;
78169;SDS011;67412;49.892;14.490;2023-04-25T09:42:30;6.32;;;2.55;;
78169;SDS011;67412;49.892;14.490;2023-04-25T09:44:57;5.90;;;2.08;;
78169;SDS011;67412;49.892;14.490;2023-04-25T09:47:24;3.85;;;1.38;;
78169;SDS011;67412;49.892;14.490;2023-04-25T09:49:51;4.43;;;1.80;;
78169;SDS011;67412;49.892;14.490;2023-04-25T09:52:18;5.85;;;1.65;;
78169;SDS011;67412;49.892;14.490;2023-04-25T09:54:45;4.07;;;1.63;;
78169;SDS011;67412;49.892;14.490;2023-04-25T09:57:21;5.20;;;1.63;;
78169;SDS011;67412;49.892;14.490;2023-04-25T09:59:48;3.90;;;1.67;;
78169;SDS011;67412;49.892;14.490;2023-04-25T10:02:16;4.93;;;1.80;;
78169;SDS011;67412;49.892;14.490;2023-04-25T10:04:45;3.95;;;1.45;;
78169;SDS011;67412;49.892;14.490;2023-04-25T10:07:13;3.38;;;1.40;;
78169;SDS011;67412;49.892;14.490;2023-04-25T10:09:39;4.10;;;1.80;;
78169;SDS011;67412;49.892;14.490;2023-04-25T10:12:06;4.07;;;1.65;;
78169;SDS011;67412;49.892;14.490;2023-04-25T10:16:58;3.47;;;1.65;;
78169;SDS011;67412;49.892;14.490;2023-04-25T10:19:25;8.73;;;3.13;;
78169;SDS011;67412;49.892;14.490;2023-04-25T10:24:38;6.28;;;2.53;;
78169;SDS011;67412;49.892;14.490;2023-04-25T10:27:04;6.75;;;2.80;;
78169;SDS011;67412;49.892;14.490;2023-04-25T10:29:30;6.28;;;2.53;;
78169;SDS011;67412;49.892;14.490;2023-04-25T10:31:56;6.07;;;2.60;;
78169;SDS011;67412;49.892;14.490;2023-04-25T10:34:37;4.60;;;2.25;;
78169;SDS011;67412;49.892;14.490;2023-04-25T10:37:04;6.35;;;2.92;;
78169;SDS011;67412;49.892;14.490;2023-04-25T10:39:30;8.48;;;2.88;;
78169;SDS011;67412;49.892;14.490;2023-04-25T10:41:58;6.60;;;2.55;;
78169;SDS011;67412;49.892;14.490;2023-04-25T10:44:30;6.88;;;2.60;;
78169;SDS011;67412;49.892;14.490;2023-04-25T10:46:56;5.45;;;2.03;;
78169;SDS011;67412;49.892;14.490;2023-04-25T10:49:30;7.85;;;2.50;;
78169;SDS011;67412;49.892;14.490;2023-04-25T10:52:12;4.47;;;1.95;;
78169;SDS011;67412;49.892;14.490;2023-04-25T10:54:41;5.25;;;2.03;;
78169;SDS011;67412;49.892;14.490;2023-04-25T10:59:50;8.85;;;2.92;;
78169;SDS011;67412;49.892;14.490;2023-04-25T11:02:16;7.40;;;2.65;;
78169;SDS011;67412;49.892;14.490;2023-04-25T11:04:41;6.13;;;2.42;;
78169;SDS011;67412;49.892;14.490;2023-04-25T11:10:09;7.82;;;2.85;;
78169;SDS011;67412;49.892;14.490;2023-04-25T11:12:34;6.15;;;2.42;;
78169;SDS011;67412;49.892;14.490;2023-04-25T11:15:06;5.45;;;1.95;;
78169;SDS011;67412;49.892;14.490;2023-04-25T11:17:32;5.80;;;2.28;;
78169;SDS011;67412;49.892;14.490;2023-04-25T11:19:58;5.85;;;2.50;;
78169;SDS011;67412;49.892;14.490;2023-04-25T11:22:24;7.50;;;2.75;;
78169;SDS011;67412;49.892;14.490;2023-04-25T11:24:49;6.05;;;2.45;;
78169;SDS011;67412;49.892;14.490;2023-04-25T11:27:15;9.07;;;3.15;;
78169;SDS011;67412;49.892;14.490;2023-04-25T11:29:41;5.85;;;2.50;;
78169;SDS011;67412;49.892;14.490;2023-04-25T11:32:06;8.05;;;2.38;;
78169;SDS011;67412;49.892;14.490;2023-04-25T11:34:32;7.30;;;2.90;;
78169;SDS011;67412;49.892;14.490;2023-04-25T11:37:01;4.47;;;1.98;;
78169;SDS011;67412;49.892;14.490;2023-04-25T11:39:27;6.78;;;2.65;;
78169;SDS011;67412;49.892;14.490;2023-04-25T11:41:54;7.55;;;2.65;;
78169;SDS011;67412;49.892;14.490;2023-04-25T11:44:20;7.03;;;3.10;;
78169;SDS011;67412;49.892;14.490;2023-04-25T11:46:46;6.43;;;2.38;;
78169;SDS011;67412;49.892;14.490;2023-04-25T11:49:12;10.77;;;3.40;;
78169;SDS011;67412;49.892;14.490;2023-04-25T11:51:39;8.20;;;2.85;;
78169;SDS011;67412;49.892;14.490;2023-04-25T11:56:37;8.82;;;3.13;;
78169;SDS011;67412;49.892;14.490;2023-04-25T11:59:06;6.40;;;2.70;;
78169;SDS011;67412;49.892;14.490;2023-04-25T12:01:32;9.27;;;3.50;;
78169;SDS011;67412;49.892;14.490;2023-04-25T12:04:09;6.47;;;2.45;;
78169;SDS011;67412;49.892;14.490;2023-04-25T12:06:38;6.63;;;2.83;;
78169;SDS011;67412;49.892;14.490;2023-04-25T12:09:06;8.15;;;3.00;;
78169;SDS011;67412;49.892;14.490;2023-04-25T12:11:43;9.38;;;3.42;;
78169;SDS011;67412;49.892;14.490;2023-04-25T12:14:31;9.15;;;3.03;;
78169;SDS011;67412;49.892;14.490;2023-04-25T12:16:58;8.10;;;3.13;;
78169;SDS011;67412;49.892;14.490;2023-04-25T12:19:24;7.10;;;2.78;;
78169;SDS011;67412;49.892;14.490;2023-04-25T12:21:50;7.05;;;2.67;;
78169;SDS011;67412;49.892;14.490;2023-04-25T12:24:17;7.80;;;2.78;;
78169;SDS011;67412;49.892;14.490;2023-04-25T12:26:49;10.23;;;3.03;;
78169;SDS011;67412;49.892;14.490;2023-04-25T12:29:19;6.57;;;2.47;;
78169;SDS011;67412;49.892;14.490;2023-04-25T12:31:48;5.65;;;2.10;;
78169;SDS011;67412;49.892;14.490;2023-04-25T12:34:14;5.93;;;2.00;;
78169;SDS011;67412;49.892;14.490;2023-04-25T12:36:40;5.20;;;2.45;;
78169;SDS011;67412;49.892;14.490;2023-04-25T12:39:06;7.47;;;2.45;;
78169;SDS011;67412;49.892;14.490;2023-04-25T12:41:31;4.90;;;2.15;;
78169;SDS011;67412;49.892;14.490;2023-04-25T12:43:57;7.35;;;2.17;;
78169;SDS011;67412;49.892;14.490;2023-04-25T12:46:22;6.93;;;2.42;;
78169;SDS011;67412;49.892;14.490;2023-04-25T12:48:48;6.45;;;2.33;;
78169;SDS011;67412;49.892;14.490;2023-04-25T12:51:13;6.40;;;2.33;;
78169;SDS011;67412;49.892;14.490;2023-04-25T12:53:39;5.07;;;1.90;;
78169;SDS011;67412;49.892;14.490;2023-04-25T12:56:06;4.38;;;1.58;;
78169;SDS011;67412;49.892;14.490;2023-04-25T12:58:32;4.63;;;1.50;;
78169;SDS011;67412;49.892;14.490;2023-04-25T13:00:58;6.10;;;1.98;;
78169;SDS011;67412;49.892;14.490;2023-04-25T13:03:24;6.05;;;2.10;;
78169;SDS011;67412;49.892;14.490;2023-04-25T13:05:50;5.13;;;1.88;;
78169;SDS011;67412;49.892;14.490;2023-04-25T13:08:17;5.05;;;1.90;;
78169;SDS011;67412;49.892;14.490;2023-04-25T13:10:43;3.00;;;1.02;;
78169;SDS011;67412;49.892;14.490;2023-04-25T13:13:08;6.70;;;1.75;;
78169;SDS011;67412;49.892;14.490;2023-04-25T13:15:33;7.55;;;2.00;;
78169;SDS011;67412;49.892;14.490;2023-04-25T13:17:59;2.67;;;1.20;;
78169;SDS011;67412;49.892;14.490;2023-04-25T13:20:24;4.03;;;1.48;;
78169;SDS011;67412;49.892;14.490;2023-04-25T13:22:49;5.25;;;1.55;;
78169;SDS011;67412;49.892;14.490;2023-04-25T13:25:15;4.70;;;1.48;;
78169;SDS011;67412;49.892;14.490;2023-04-25T13:27:41;4.75;;;1.33;;
78169;SDS011;67412;49.892;14.490;2023-04-25T13:30:09;3.17;;;1.40;;
78169;SDS011;67412;49.892;14.490;2023-04-25T13:32:34;5.30;;;1.52;;
78169;SDS011;67412;49.892;14.490;2023-04-25T13:35:03;4.35;;;1.50;;
78169;SDS011;67412;49.892;14.490;2023-04-25T13:37:30;11.18;;;2.15;;
78169;SDS011;67412;49.892;14.490;2023-04-25T13:39:58;5.95;;;1.88;;
78169;SDS011;67412;49.892;14.490;2023-04-25T13:42:24;5.68;;;2.05;;
78169;SDS011;67412;49.892;14.490;2023-04-25T13:44:50;6.90;;;1.90;;
78169;SDS011;67412;49.892;14.490;2023-04-25T13:47:15;6.60;;;2.20;;
78169;SDS011;67412;49.892;14.490;2023-04-25T13:49:40;4.07;;;1.83;;
78169;SDS011;67412;49.892;14.490;2023-04-25T13:52:06;6.55;;;1.92;;
78169;SDS011;67412;49.892;14.490;2023-04-25T13:54:31;4.07;;;1.73;;
78169;SDS011;67412;49.892;14.490;2023-04-25T13:56:56;6.93;;;1.90;;
78169;SDS011;67412;49.892;14.490;2023-04-25T13:59:24;5.28;;;2.00;;
78169;SDS011;67412;49.892;14.490;2023-04-25T14:01:50;3.97;;;1.45;;
78169;SDS011;67412;49.892;14.490;2023-04-25T14:04:16;7.45;;;2.20;;
78169;SDS011;67412;49.892;14.490;2023-04-25T14:06:41;7.28;;;2.00;;
78169;SDS011;67412;49.892;14.490;2023-04-25T14:09:06;5.18;;;1.80;;
78169;SDS011;67412;49.892;14.490;2023-04-25T14:11:35;7.57;;;1.95;;
78169;SDS011;67412;49.892;14.490;2023-04-25T14:14:01;5.70;;;1.95;;
78169;SDS011;67412;49.892;14.490;2023-04-25T14:16:27;4.72;;;2.00;;
78169;SDS011;67412;49.892;14.490;2023-04-25T14:18:53;6.97;;;1.92;;
78169;SDS011;67412;49.892;14.490;2023-04-25T14:21:19;7.75;;;2.83;;
78169;SDS011;67412;49.892;14.490;2023-04-25T14:23:45;4.47;;;1.92;;
78169;SDS011;67412;49.892;14.490;2023-04-25T14:26:11;5.72;;;2.03;;
78169;SDS011;67412;49.892;14.490;2023-04-25T14:28:37;7.45;;;2.10;;
78169;SDS011;67412;49.892;14.490;2023-04-25T14:31:03;6.57;;;1.77;;
78169;SDS011;67412;49.892;14.490;2023-04-25T14:33:29;5.68;;;2.15;;
78169;SDS011;67412;49.892;14.490;2023-04-25T14:35:55;3.47;;;1.55;;
78169;SDS011;67412;49.892;14.490;2023-04-25T14:38:21;7.18;;;2.00;;
78169;SDS011;67412;49.892;14.490;2023-04-25T14:40:48;4.38;;;2.25;;
78169;SDS011;67412;49.892;14.490;2023-04-25T14:43:16;5.13;;;2.20;;
78169;SDS011;67412;49.892;14.490;2023-04-25T14:45:42;3.85;;;1.63;;
78169;SDS011;67412;49.892;14.490;2023-04-25T14:48:07;5.47;;;1.80;;
78169;SDS011;67412;49.892;14.490;2023-04-25T14:50:33;4.85;;;1.83;;
78169;SDS011;67412;49.892;14.490;2023-04-25T14:52:58;4.63;;;2.00;;